Flight Track Log - Related Links

Times and Time Zones

All times are in EDT time to prevent confusion due to time zone crossing. See the N149GK flight status page for this flight to view local times or setup timezone preferences in your user account.

Time Position Orientation Groundspeed Altitude Reporting Facility
EDT Latitude Longitude Course Direction KTS MPH feet Rate Location/Type
Wed 05:07:20 PM 33.9167 -84.3333 231° Southwest 261 300 6,000  Level Atlanta TRACON
Wed 05:08:19 PM 33.8333 -84.3667 198° South 292 336 6,000  Level Atlanta TRACON
Wed 05:09:20 PM 33.7667 -84.4000 203° Southwest 291 335 6,000  Level Atlanta TRACON
Wed 05:10:20 PM 33.6833 -84.3833 171° South 310 357 6,000 105 Level Atlanta TRACON
Wed 05:11:00 PM 33.4697 -83.9753 175° South  Level Estimated
Wed 05:11:14 PM 33.6000 -84.3833 180° South 339 390 6,200  Level Atlanta TRACON
Wed 05:12:14 PM 33.5167 -84.3833 180° South 307 353 8,200 1,629 Climbing Atlanta TRACON
Wed 05:13:45 PM 33.4017 -84.2950 147° Southeast 326 375 10,300 1,272 Climbing Atlanta Center
Wed 05:14:45 PM 33.3244 -84.2278 144° Southeast 326 375 11,400 1,150 Climbing Atlanta Center
Wed 05:15:45 PM 33.2514 -84.1581 141° Southeast 337 388 12,600 1,150 Climbing Atlanta Center
Wed 05:16:45 PM 33.1786 -84.0836 139° Southeast 345 397 13,700 1,000 Climbing Atlanta Center
Wed 05:17:45 PM 33.1033 -84.0092 140° Southeast 350 403 14,600 850 Climbing Atlanta Center
Wed 05:18:45 PM 33.0322 -83.9422 142° Southeast 350 403 15,400 850 Climbing Atlanta Center
Wed 05:19:45 PM 32.9531 -83.8656 141° Southeast 350 403 16,300 950 Climbing Atlanta Center
Wed 05:20:45 PM 32.8736 -83.7892 141° Southeast 355 409 17,300 1,100 Climbing Atlanta Center
Wed 05:21:45 PM 32.7961 -83.7150 141° Southeast 361 415 18,500 1,350 Climbing Atlanta Center
Wed 05:22:45 PM 32.7208 -83.6389 140° Southeast 361 415 20,000 2,200 Climbing Atlanta Center
Wed 05:23:45 PM 32.6494 -83.5700 141° Southeast 349 402 22,900 612 Climbing Atlanta Center
Wed 05:27:39 PM 32.3247 -83.2589 141° Southeast 385 443 23,000 20 Climbing Jacksonville Center
Wed 05:28:39 PM 32.2392 -83.1750 140° Southeast 385 443 23,000  Level Jacksonville Center
Wed 05:29:39 PM 32.1539 -83.0914 140° Southeast 390 449 23,000  Level Jacksonville Center
Wed 05:30:39 PM 32.0664 -83.0103 142° Southeast 395 455 23,000  Level Jacksonville Center
Wed 05:31:39 PM 31.9808 -82.9269 140° Southeast 395 455 23,000  Level Jacksonville Center
Wed 05:32:39 PM 31.8950 -82.8436 140° Southeast 395 455 23,000  Level Jacksonville Center
Wed 05:33:39 PM 31.8053 -82.7656 144° Southeast 401 461 23,000  Level Jacksonville Center
Wed 05:34:39 PM 31.7111 -82.7044 151° Southeast 395 455 23,000 -50 Level Jacksonville Center
Wed 05:35:39 PM 31.6150 -82.6436 152° Southeast 395 455 22,900 -800 Descending Jacksonville Center
Wed 05:36:39 PM 31.5211 -82.5806 150° Southeast 395 455 21,400 -1,450 Descending Jacksonville Center
Wed 05:37:39 PM 31.4311 -82.5225 151° Southeast 390 449 20,000 -900 Descending Jacksonville Center
Wed 05:38:39 PM 31.3264 -82.4619 154° Southeast 379 436 19,600 -1,200 Descending Jacksonville Center
Wed 05:39:39 PM 31.2364 -82.3994 149° Southeast 379 436 17,600 -2,000 Descending Jacksonville Center
Wed 05:40:39 PM 31.1464 -82.3439 152° Southeast 372 428 15,600 -1,978 Descending Jacksonville Center
Wed 05:41:10 PM 31.1044 -82.3150 149° Southeast 360 414 14,600 -1,900 Descending Jacksonville Center
Wed 05:41:39 PM 31.0606 -82.2886 153° Southeast 367 422 13,700 -1,959 Descending Jacksonville Center
Wed 05:41:59 PM 31.0314 -82.2669 148° Southeast 351 404 13,000 -1,700 Descending Jacksonville Center
Wed 05:42:39 PM 30.9789 -82.2336 151° Southeast 361 415 12,000 -984 Descending Jacksonville Center
Wed 05:43:00 PM 30.9558 -82.2044 133° Southeast 340 391 12,000 -1,300 Level Jacksonville Center
Wed 05:43:39 PM 30.9117 -82.1564 137° Southeast 350 403 10,700 -1,869 Descending Jacksonville Center
Wed 05:44:01 PM 30.8928 -82.1300 130° Southeast 327 376 10,100 -700 Descending Jacksonville Center
Wed 05:44:39 PM 30.8464 -82.0819 138° Southeast 338 389 10,000 -109 Descending Jacksonville Center
Wed 05:44:56 PM 30.8297 -82.0603 132° Southeast 327 376 10,000 -300 Level Jacksonville Center
Wed 05:45:39 PM 30.7811 -82.0075 137° Southeast 326 375 9,700 -1,377 Descending Jacksonville Center
Wed 05:45:57 PM 30.7644 -81.9883 135° Southeast 325 374 8,600 -3,500 Descending Jacksonville Center
Wed 05:46:39 PM 30.7181 -81.9381 137° Southeast 321 369 6,200 -3,541 Descending Jacksonville Center
Wed 05:46:58 PM 30.7011 -81.9164 132° Southeast 301 346 5,000 -2,200 Descending Jacksonville Center
Wed 05:47:39 PM 30.6633 -81.8733 136° Southeast 303 349 4,000 -1,377 Descending Jacksonville Center
Wed 05:47:59 PM 30.6486 -81.8444 121° Southeast 294 338 3,600 -1,000 Descending Jacksonville Center
Wed 05:48:39 PM 30.6356 -81.7844 104° East 290 334 3,000 537 Descending Jacksonville Center
Wed 05:49:06 PM 30.6289 -81.7458 101° East 273 314 4,200 1,100 Climbing Jacksonville Center
Wed 05:49:39 PM 30.6139 -81.7050 113° Southeast 271 312 4,100 -179 Descending Jacksonville Center
Wed 05:50:13 PM 30.6092 -81.6544 96° East 256 295 4,000 -100 Descending Jacksonville Center
Wed 05:50:39 PM 30.6006 -81.6231 108° East 261 300 4,000  Level Jacksonville Center
Wed 05:51:08 PM 30.5917 -81.5797 103° East 279 321 4,000 -667 Level Jacksonville Center
Wed 05:52:09 PM 30.5247 -81.5661 170° South 210 242 3,000 -517 Descending Jacksonville Center
Wed 05:53:04 PM 30.4789 -81.5619 176° South 163 188 3,000 -155 Level Jacksonville Center
Wed 05:54:05 PM 30.4497 -81.5867 216° Southwest 133 153 2,700 -836 Descending Jacksonville Center
Wed 05:55:06 PM 30.4481 -81.6275 267° West 133 153 1,300 -1,033 Descending Jacksonville Center
Wed 05:56:07 PM 30.4653 -81.6633 299° West 125 144 600 -689 Descending Jacksonville Center
Wed 05:58:00 PM 30.4833 -81.6833 311° West  Level FlightAware Approximate
Wed 06:05:00 PM 30.4941 -81.6879 311° West  Level Estimated

Login

Don't have an account? Register now (free) for customized features, flight alerts, and more!